Kenner, LA

5:03 AM CDT on March 26, 2017 (GMT -0500)
Chateau Lakefront | | Change Station

Elev 10 ft 30.04 °N, 90.26 °W | Updated 19 seconds ago

Overcast
Overcast
65.8 °F
Feels Like 65.8 °F
N
0.0
Wind Variable Wind from ESE

Today
High -- | Low -- °F
--% Chance of Precip.
Yesterday
High -- | Low -- °F
Precip. -- in
Pressure 29.99 in
Visibility 8.0 miles
Clouds Scattered Clouds 1100 ft
Scattered Clouds 1800 ft
Overcast 3400 ft
Dew Point 64 °F
Humidity 95%
Rainfall 0.00 in
Snow Depth Not available.
6:57 AM 7:16 PM
Waning Crescent, 4% visible
METAR KMSY 260953Z 00000KT 8SM SCT011 SCT018 OVC034 19/19 A2997 RMK AO2 SLP153 T01940189
Pressure 29.99 in
Visibility 8.0 miles
Clouds Scattered Clouds 1100 ft
Scattered Clouds 1800 ft
Overcast 3400 ft
Dew Point 64 °F
Humidity 95%
Rainfall 0.00 in
Snow Depth Not available.
6:57 AM 7:16 PM
Waning Crescent, 4% visible
METAR KMSY 260953Z 00000KT 8SM SCT011 SCT018 OVC034 19/19 A2997 RMK AO2 SLP153 T01940189

Get Severe Weather Alerts

Thanks for signing up!

Be on the lookout for a verification email in your inbox.

You'll start receiving the daily forecast at 8 AM.

×

10-Day Weather Forecast

Almanac

Astronomy

Mar. 26, 2017 Rise Set
Actual Time
Civil Twilight
Nautical Twilight
Astronomical Twilight
Moon
Length of Visible Light
Length of Day
Tomorrow will be .
, % of the Moon is Illuminated

Today's Extremes

State Highs State Lows

Community

WunderPhotos

Upload Photos

1,962,540 photos uploaded!

WunderBlog® & News

Nearby

Air Quality

  Air Quality AQ Index Pollutant
Not available.

Snow Depth

Station Depth Elevation

Earthquake Activity

City Distance Mag. Time & Date
Minimum magnitude displayed is 2.5.

Earthquake Activity

City Distance Mag. Time & Date
Minimum magnitude displayed is 2.5.

Coastal Water Temperatures

Place Temperature

Stations

Nearby Weather Stations

Station Location Temp. Windchill Dew Point Humidity Wind Precip. Elev Updated Type
                   

Watches & Warnings

There are currently no watches in effect.